Terminal Aerodrome Forecast
Issued by NWS

Home | Current Version | Previous Version | Text Only | Print | Product List | Glossary On
Versions: 1 2 3 4 5 6 7 8 9 10 11 12
177
FTUS45 KPSR 301721
TAFBLH
TAF
KBLH 301721Z 3018/3118 15005KT P6SM SKC
     FM310300 20008KT P6SM SKC
     FM310700 18005KT P6SM SKC=

USA.gov is the U.S. government's official web portal to all federal, state and local government web resources and services.